sensor_id;sensor_type;location;lat;lon;timestamp;P1;durP1;ratioP1;P2;durP2;ratioP2
37559;SDS011;23398;50.928;7.084;2022-11-04T00:01:43;0.95;;;0.88;;
37559;SDS011;23398;50.928;7.084;2022-11-04T00:04:10;1.17;;;0.90;;
37559;SDS011;23398;50.928;7.084;2022-11-04T00:06:37;1.00;;;0.90;;
37559;SDS011;23398;50.928;7.084;2022-11-04T00:09:04;1.58;;;1.05;;
37559;SDS011;23398;50.928;7.084;2022-11-04T00:11:31;1.35;;;1.00;;
37559;SDS011;23398;50.928;7.084;2022-11-04T00:14:15;1.50;;;0.93;;
37559;SDS011;23398;50.928;7.084;2022-11-04T00:16:41;1.40;;;0.88;;
37559;SDS011;23398;50.928;7.084;2022-11-04T00:19:25;1.15;;;0.93;;
37559;SDS011;23398;50.928;7.084;2022-11-04T00:21:51;1.85;;;0.80;;
37559;SDS011;23398;50.928;7.084;2022-11-04T00:24:36;0.88;;;0.75;;
37559;SDS011;23398;50.928;7.084;2022-11-04T00:27:10;2.28;;;0.80;;
37559;SDS011;23398;50.928;7.084;2022-11-04T00:29:55;1.40;;;0.70;;
37559;SDS011;23398;50.928;7.084;2022-11-04T00:32:21;1.00;;;0.90;;
37559;SDS011;23398;50.928;7.084;2022-11-04T00:35:05;2.75;;;1.00;;
37559;SDS011;23398;50.928;7.084;2022-11-04T00:37:34;1.73;;;0.90;;
37559;SDS011;23398;50.928;7.084;2022-11-04T00:40:01;1.33;;;0.70;;
37559;SDS011;23398;50.928;7.084;2022-11-04T00:42:27;2.47;;;0.90;;
37559;SDS011;23398;50.928;7.084;2022-11-04T00:44:52;3.10;;;0.90;;
37559;SDS011;23398;50.928;7.084;2022-11-04T00:47:18;1.35;;;0.75;;
37559;SDS011;23398;50.928;7.084;2022-11-04T00:49:44;0.73;;;0.68;;
37559;SDS011;23398;50.928;7.084;2022-11-04T00:52:09;3.47;;;1.00;;
37559;SDS011;23398;50.928;7.084;2022-11-04T00:54:35;5.90;;;1.05;;
37559;SDS011;23398;50.928;7.084;2022-11-04T00:57:00;3.88;;;1.08;;
37559;SDS011;23398;50.928;7.084;2022-11-04T00:59:26;2.58;;;1.10;;
37559;SDS011;23398;50.928;7.084;2022-11-04T01:01:51;2.05;;;1.00;;
37559;SDS011;23398;50.928;7.084;2022-11-04T01:04:17;1.52;;;0.98;;
37559;SDS011;23398;50.928;7.084;2022-11-04T01:06:42;1.15;;;1.00;;
37559;SDS011;23398;50.928;7.084;2022-11-04T01:09:10;2.38;;;0.77;;
37559;SDS011;23398;50.928;7.084;2022-11-04T01:11:36;1.10;;;0.80;;
37559;SDS011;23398;50.928;7.084;2022-11-04T01:14:02;2.00;;;0.90;;
37559;SDS011;23398;50.928;7.084;2022-11-04T01:16:28;1.35;;;1.05;;
37559;SDS011;23398;50.928;7.084;2022-11-04T01:18:54;1.33;;;0.90;;
37559;SDS011;23398;50.928;7.084;2022-11-04T01:21:19;0.80;;;0.80;;
37559;SDS011;23398;50.928;7.084;2022-11-04T01:23:45;0.70;;;0.70;;
37559;SDS011;23398;50.928;7.084;2022-11-04T01:26:12;0.70;;;0.70;;
37559;SDS011;23398;50.928;7.084;2022-11-04T01:28:43;0.85;;;0.85;;
37559;SDS011;23398;50.928;7.084;2022-11-04T01:31:09;1.90;;;1.00;;
37559;SDS011;23398;50.928;7.084;2022-11-04T01:33:37;0.80;;;0.80;;
37559;SDS011;23398;50.928;7.084;2022-11-04T01:36:03;1.02;;;0.93;;
37559;SDS011;23398;50.928;7.084;2022-11-04T01:38:31;1.52;;;1.00;;
37559;SDS011;23398;50.928;7.084;2022-11-04T01:40:57;1.15;;;1.00;;
37559;SDS011;23398;50.928;7.084;2022-11-04T01:43:23;0.88;;;0.80;;
37559;SDS011;23398;50.928;7.084;2022-11-04T01:46:08;0.75;;;0.75;;
37559;SDS011;23398;50.928;7.084;2022-11-04T01:48:57;1.10;;;0.80;;
37559;SDS011;23398;50.928;7.084;2022-11-04T01:51:34;0.80;;;0.80;;
37559;SDS011;23398;50.928;7.084;2022-11-04T01:54:01;1.10;;;0.70;;
37559;SDS011;23398;50.928;7.084;2022-11-04T01:56:28;0.82;;;0.70;;
37559;SDS011;23398;50.928;7.084;2022-11-04T01:58:56;2.58;;;0.90;;
37559;SDS011;23398;50.928;7.084;2022-11-04T02:01:24;2.60;;;0.80;;
37559;SDS011;23398;50.928;7.084;2022-11-04T02:03:51;0.60;;;0.60;;
37559;SDS011;23398;50.928;7.084;2022-11-04T02:06:19;1.40;;;0.70;;
37559;SDS011;23398;50.928;7.084;2022-11-04T02:08:46;1.10;;;0.80;;
37559;SDS011;23398;50.928;7.084;2022-11-04T02:11:13;0.80;;;0.65;;
37559;SDS011;23398;50.928;7.084;2022-11-04T02:13:59;0.90;;;0.77;;
37559;SDS011;23398;50.928;7.084;2022-11-04T02:16:46;0.68;;;0.68;;
37559;SDS011;23398;50.928;7.084;2022-11-04T02:19:35;1.17;;;0.70;;
37559;SDS011;23398;50.928;7.084;2022-11-04T02:31:10;1.23;;;0.80;;
37559;SDS011;23398;50.928;7.084;2022-11-04T02:33:45;0.98;;;0.80;;
37559;SDS011;23398;50.928;7.084;2022-11-04T02:36:27;1.70;;;0.70;;
37559;SDS011;23398;50.928;7.084;2022-11-04T02:39:33;1.33;;;1.02;;
37559;SDS011;23398;50.928;7.084;2022-11-04T02:42:11;1.25;;;0.80;;
37559;SDS011;23398;50.928;7.084;2022-11-04T02:47:56;2.60;;;0.90;;
37559;SDS011;23398;50.928;7.084;2022-11-04T02:51:00;1.25;;;0.75;;
37559;SDS011;23398;50.928;7.084;2022-11-04T02:53:32;1.33;;;0.88;;
37559;SDS011;23398;50.928;7.084;2022-11-04T02:56:01;0.70;;;0.70;;
37559;SDS011;23398;50.928;7.084;2022-11-04T02:58:31;1.95;;;0.98;;
37559;SDS011;23398;50.928;7.084;2022-11-04T03:01:01;1.70;;;0.77;;
37559;SDS011;23398;50.928;7.084;2022-11-04T03:03:31;0.98;;;0.75;;
37559;SDS011;23398;50.928;7.084;2022-11-04T03:06:02;1.27;;;0.90;;
37559;SDS011;23398;50.928;7.084;2022-11-04T03:08:29;1.00;;;0.90;;
37559;SDS011;23398;50.928;7.084;2022-11-04T03:11:03;1.15;;;0.80;;
37559;SDS011;23398;50.928;7.084;2022-11-04T03:16:11;1.10;;;1.00;;
37559;SDS011;23398;50.928;7.084;2022-11-04T03:21:26;1.65;;;1.00;;
37559;SDS011;23398;50.928;7.084;2022-11-04T03:23:55;1.73;;;0.93;;
37559;SDS011;23398;50.928;7.084;2022-11-04T03:27:09;1.65;;;0.90;;
37559;SDS011;23398;50.928;7.084;2022-11-04T03:34:34;1.98;;;0.80;;
37559;SDS011;23398;50.928;7.084;2022-11-04T03:37:01;1.73;;;0.85;;
37559;SDS011;23398;50.928;7.084;2022-11-04T03:39:27;2.30;;;0.80;;
37559;SDS011;23398;50.928;7.084;2022-11-04T03:41:54;2.53;;;0.77;;
37559;SDS011;23398;50.928;7.084;2022-11-04T03:44:22;2.75;;;1.02;;
37559;SDS011;23398;50.928;7.084;2022-11-04T03:46:49;2.05;;;0.90;;
37559;SDS011;23398;50.928;7.084;2022-11-04T03:49:17;2.30;;;0.70;;
37559;SDS011;23398;50.928;7.084;2022-11-04T03:51:45;1.48;;;1.00;;
37559;SDS011;23398;50.928;7.084;2022-11-04T03:54:10;1.33;;;0.70;;
37559;SDS011;23398;50.928;7.084;2022-11-04T03:56:41;1.88;;;0.90;;
37559;SDS011;23398;50.928;7.084;2022-11-04T04:02:34;2.25;;;0.90;;
37559;SDS011;23398;50.928;7.084;2022-11-04T04:08:07;1.17;;;0.80;;
37559;SDS011;23398;50.928;7.084;2022-11-04T04:10:47;1.80;;;1.08;;
37559;SDS011;23398;50.928;7.084;2022-11-04T04:16:21;1.85;;;0.75;;
37559;SDS011;23398;50.928;7.084;2022-11-04T04:21:34;0.98;;;0.70;;
37559;SDS011;23398;50.928;7.084;2022-11-04T04:24:06;1.27;;;0.70;;
37559;SDS011;23398;50.928;7.084;2022-11-04T04:26:53;1.15;;;0.70;;
37559;SDS011;23398;50.928;7.084;2022-11-04T04:29:39;1.63;;;1.05;;
37559;SDS011;23398;50.928;7.084;2022-11-04T04:32:07;1.27;;;0.90;;
37559;SDS011;23398;50.928;7.084;2022-11-04T04:34:33;0.80;;;0.68;;
37559;SDS011;23398;50.928;7.084;2022-11-04T04:37:07;1.15;;;0.90;;
37559;SDS011;23398;50.928;7.084;2022-11-04T04:39:50;1.98;;;0.80;;
37559;SDS011;23398;50.928;7.084;2022-11-04T04:42:36;1.65;;;0.65;;
37559;SDS011;23398;50.928;7.084;2022-11-04T04:45:26;1.88;;;0.90;;
37559;SDS011;23398;50.928;7.084;2022-11-04T04:47:57;1.08;;;0.75;;
37559;SDS011;23398;50.928;7.084;2022-11-04T04:50:24;1.60;;;0.90;;
37559;SDS011;23398;50.928;7.084;2022-11-04T04:52:53;1.35;;;0.88;;
37559;SDS011;23398;50.928;7.084;2022-11-04T04:55:22;2.28;;;0.90;;
37559;SDS011;23398;50.928;7.084;2022-11-04T04:57:47;1.92;;;0.93;;
37559;SDS011;23398;50.928;7.084;2022-11-04T05:00:14;2.28;;;0.80;;
37559;SDS011;23398;50.928;7.084;2022-11-04T05:02:42;2.65;;;0.80;;
37559;SDS011;23398;50.928;7.084;2022-11-04T05:05:08;1.83;;;0.85;;
37559;SDS011;23398;50.928;7.084;2022-11-04T05:07:35;2.28;;;0.90;;
37559;SDS011;23398;50.928;7.084;2022-11-04T05:10:01;1.23;;;0.80;;
37559;SDS011;23398;50.928;7.084;2022-11-04T05:12:27;2.50;;;0.90;;
37559;SDS011;23398;50.928;7.084;2022-11-04T05:15:13;2.72;;;0.90;;
37559;SDS011;23398;50.928;7.084;2022-11-04T05:17:38;2.05;;;1.10;;
37559;SDS011;23398;50.928;7.084;2022-11-04T05:20:04;2.00;;;1.23;;
37559;SDS011;23398;50.928;7.084;2022-11-04T05:22:30;3.63;;;1.20;;
37559;SDS011;23398;50.928;7.084;2022-11-04T05:24:55;2.50;;;1.17;;
37559;SDS011;23398;50.928;7.084;2022-11-04T05:27:21;6.47;;;1.35;;
37559;SDS011;23398;50.928;7.084;2022-11-04T05:29:46;1.83;;;1.00;;
37559;SDS011;23398;50.928;7.084;2022-11-04T05:32:12;3.80;;;1.13;;
37559;SDS011;23398;50.928;7.084;2022-11-04T05:34:37;3.17;;;1.02;;
37559;SDS011;23398;50.928;7.084;2022-11-04T05:37:02;2.03;;;1.00;;
37559;SDS011;23398;50.928;7.084;2022-11-04T05:39:28;1.42;;;0.80;;
37559;SDS011;23398;50.928;7.084;2022-11-04T05:41:53;2.63;;;0.90;;
37559;SDS011;23398;50.928;7.084;2022-11-04T05:44:19;3.08;;;1.10;;
37559;SDS011;23398;50.928;7.084;2022-11-04T05:46:44;2.28;;;1.08;;
37559;SDS011;23398;50.928;7.084;2022-11-04T05:49:10;2.60;;;0.98;;
37559;SDS011;23398;50.928;7.084;2022-11-04T05:51:36;1.83;;;0.77;;
37559;SDS011;23398;50.928;7.084;2022-11-04T05:54:01;3.53;;;1.00;;
37559;SDS011;23398;50.928;7.084;2022-11-04T05:56:27;1.95;;;0.73;;
37559;SDS011;23398;50.928;7.084;2022-11-04T05:58:53;2.42;;;1.00;;
37559;SDS011;23398;50.928;7.084;2022-11-04T06:01:30;1.63;;;0.82;;
37559;SDS011;23398;50.928;7.084;2022-11-04T06:04:00;1.52;;;0.75;;
37559;SDS011;23398;50.928;7.084;2022-11-04T06:06:28;1.98;;;0.93;;
37559;SDS011;23398;50.928;7.084;2022-11-04T06:08:55;5.10;;;1.25;;
37559;SDS011;23398;50.928;7.084;2022-11-04T06:11:21;1.40;;;0.90;;
37559;SDS011;23398;50.928;7.084;2022-11-04T06:13:48;2.97;;;1.00;;
37559;SDS011;23398;50.928;7.084;2022-11-04T06:16:14;2.80;;;0.90;;
37559;SDS011;23398;50.928;7.084;2022-11-04T06:18:40;2.35;;;1.00;;
37559;SDS011;23398;50.928;7.084;2022-11-04T06:21:27;1.38;;;0.90;;
37559;SDS011;23398;50.928;7.084;2022-11-04T06:23:53;1.88;;;0.75;;
37559;SDS011;23398;50.928;7.084;2022-11-04T06:26:23;4.22;;;1.50;;
37559;SDS011;23398;50.928;7.084;2022-11-04T06:28:50;1.10;;;0.80;;
37559;SDS011;23398;50.928;7.084;2022-11-04T06:31:16;1.83;;;1.08;;
37559;SDS011;23398;50.928;7.084;2022-11-04T06:33:42;1.65;;;1.02;;
37559;SDS011;23398;50.928;7.084;2022-11-04T06:36:09;1.77;;;1.27;;
37559;SDS011;23398;50.928;7.084;2022-11-04T06:38:37;2.38;;;1.00;;
37559;SDS011;23398;50.928;7.084;2022-11-04T06:41:05;1.88;;;1.30;;
37559;SDS011;23398;50.928;7.084;2022-11-04T06:43:31;2.63;;;1.75;;
37559;SDS011;23398;50.928;7.084;2022-11-04T06:45:58;2.72;;;1.85;;
37559;SDS011;23398;50.928;7.084;2022-11-04T06:48:25;3.53;;;1.70;;
37559;SDS011;23398;50.928;7.084;2022-11-04T06:50:51;6.53;;;1.58;;
37559;SDS011;23398;50.928;7.084;2022-11-04T06:53:17;2.47;;;1.42;;
37559;SDS011;23398;50.928;7.084;2022-11-04T06:55:43;2.90;;;1.48;;
37559;SDS011;23398;50.928;7.084;2022-11-04T06:58:09;2.22;;;1.20;;
37559;SDS011;23398;50.928;7.084;2022-11-04T07:00:34;3.92;;;1.50;;
37559;SDS011;23398;50.928;7.084;2022-11-04T07:03:00;3.28;;;1.90;;
37559;SDS011;23398;50.928;7.084;2022-11-04T07:05:25;2.80;;;1.60;;
37559;SDS011;23398;50.928;7.084;2022-11-04T07:07:51;3.22;;;1.40;;
37559;SDS011;23398;50.928;7.084;2022-11-04T07:10:17;2.58;;;1.30;;
37559;SDS011;23398;50.928;7.084;2022-11-04T07:12:42;2.55;;;1.20;;
37559;SDS011;23398;50.928;7.084;2022-11-04T07:15:08;2.05;;;1.20;;
37559;SDS011;23398;50.928;7.084;2022-11-04T07:17:34;1.90;;;1.30;;
37559;SDS011;23398;50.928;7.084;2022-11-04T07:20:00;2.25;;;1.00;;
37559;SDS011;23398;50.928;7.084;2022-11-04T07:22:26;2.10;;;0.90;;
37559;SDS011;23398;50.928;7.084;2022-11-04T07:24:51;2.00;;;0.98;;
37559;SDS011;23398;50.928;7.084;2022-11-04T07:27:17;1.65;;;1.00;;
37559;SDS011;23398;50.928;7.084;2022-11-04T07:29:42;4.03;;;1.10;;
37559;SDS011;23398;50.928;7.084;2022-11-04T07:32:08;4.10;;;1.20;;
37559;SDS011;23398;50.928;7.084;2022-11-04T07:34:34;1.80;;;1.10;;
37559;SDS011;23398;50.928;7.084;2022-11-04T07:36:59;1.52;;;0.98;;
37559;SDS011;23398;50.928;7.084;2022-11-04T07:39:25;3.05;;;1.15;;
37559;SDS011;23398;50.928;7.084;2022-11-04T07:41:50;1.60;;;1.05;;
37559;SDS011;23398;50.928;7.084;2022-11-04T07:44:16;2.45;;;1.00;;
37559;SDS011;23398;50.928;7.084;2022-11-04T07:46:41;2.75;;;1.00;;
37559;SDS011;23398;50.928;7.084;2022-11-04T07:49:07;3.13;;;1.30;;
37559;SDS011;23398;50.928;7.084;2022-11-04T07:51:32;1.98;;;1.00;;
37559;SDS011;23398;50.928;7.084;2022-11-04T07:53:58;1.85;;;1.00;;
37559;SDS011;23398;50.928;7.084;2022-11-04T07:56:24;2.65;;;1.00;;
37559;SDS011;23398;50.928;7.084;2022-11-04T07:58:51;2.60;;;1.20;;
37559;SDS011;23398;50.928;7.084;2022-11-04T08:01:18;1.55;;;1.00;;
37559;SDS011;23398;50.928;7.084;2022-11-04T08:03:47;5.35;;;1.20;;
37559;SDS011;23398;50.928;7.084;2022-11-04T08:06:14;2.63;;;0.90;;
37559;SDS011;23398;50.928;7.084;2022-11-04T08:08:41;2.25;;;1.00;;
37559;SDS011;23398;50.928;7.084;2022-11-04T08:11:13;1.67;;;0.95;;
37559;SDS011;23398;50.928;7.084;2022-11-04T08:13:41;3.63;;;1.20;;
37559;SDS011;23398;50.928;7.084;2022-11-04T08:16:09;2.75;;;1.10;;
37559;SDS011;23398;50.928;7.084;2022-11-04T08:18:40;3.10;;;1.10;;
37559;SDS011;23398;50.928;7.084;2022-11-04T08:21:06;2.95;;;0.95;;
37559;SDS011;23398;50.928;7.084;2022-11-04T08:23:32;5.68;;;1.30;;
37559;SDS011;23398;50.928;7.084;2022-11-04T08:25:58;2.08;;;1.20;;
37559;SDS011;23398;50.928;7.084;2022-11-04T08:28:24;4.90;;;1.17;;
37559;SDS011;23398;50.928;7.084;2022-11-04T08:33:25;2.63;;;1.20;;
37559;SDS011;23398;50.928;7.084;2022-11-04T08:35:53;1.92;;;1.13;;
37559;SDS011;23398;50.928;7.084;2022-11-04T08:38:22;1.67;;;1.10;;
37559;SDS011;23398;50.928;7.084;2022-11-04T08:40:48;2.53;;;1.27;;
37559;SDS011;23398;50.928;7.084;2022-11-04T08:43:14;3.50;;;1.70;;
37559;SDS011;23398;50.928;7.084;2022-11-04T08:45:44;3.80;;;1.67;;
37559;SDS011;23398;50.928;7.084;2022-11-04T08:48:11;2.70;;;1.33;;
37559;SDS011;23398;50.928;7.084;2022-11-04T08:50:38;2.47;;;1.38;;
37559;SDS011;23398;50.928;7.084;2022-11-04T08:53:04;3.03;;;1.50;;
37559;SDS011;23398;50.928;7.084;2022-11-04T08:55:30;3.83;;;1.60;;
37559;SDS011;23398;50.928;7.084;2022-11-04T08:57:56;6.50;;;1.52;;
37559;SDS011;23398;50.928;7.084;2022-11-04T09:00:22;3.42;;;1.45;;
37559;SDS011;23398;50.928;7.084;2022-11-04T09:02:48;3.17;;;1.52;;
37559;SDS011;23398;50.928;7.084;2022-11-04T09:05:14;2.65;;;1.23;;
37559;SDS011;23398;50.928;7.084;2022-11-04T09:07:40;3.35;;;2.70;;
37559;SDS011;23398;50.928;7.084;2022-11-04T09:10:06;6.80;;;3.35;;
37559;SDS011;23398;50.928;7.084;2022-11-04T09:12:33;4.30;;;2.40;;
37559;SDS011;23398;50.928;7.084;2022-11-04T09:14:59;4.60;;;2.00;;
37559;SDS011;23398;50.928;7.084;2022-11-04T09:17:24;2.80;;;1.42;;
37559;SDS011;23398;50.928;7.084;2022-11-04T09:19:50;3.00;;;1.33;;
37559;SDS011;23398;50.928;7.084;2022-11-04T09:22:15;3.85;;;1.50;;
37559;SDS011;23398;50.928;7.084;2022-11-04T09:24:41;4.95;;;1.50;;
37559;SDS011;23398;50.928;7.084;2022-11-04T09:27:07;3.00;;;1.30;;
37559;SDS011;23398;50.928;7.084;2022-11-04T09:29:33;3.55;;;1.38;;
37559;SDS011;23398;50.928;7.084;2022-11-04T09:32:00;2.50;;;1.20;;
37559;SDS011;23398;50.928;7.084;2022-11-04T09:34:27;3.03;;;1.45;;
37559;SDS011;23398;50.928;7.084;2022-11-04T09:36:55;3.28;;;1.25;;
37559;SDS011;23398;50.928;7.084;2022-11-04T09:39:24;2.33;;;1.20;;
37559;SDS011;23398;50.928;7.084;2022-11-04T09:44:40;2.65;;;1.00;;
37559;SDS011;23398;50.928;7.084;2022-11-04T09:47:20;3.17;;;1.25;;
37559;SDS011;23398;50.928;7.084;2022-11-04T09:49:47;2.05;;;1.13;;
37559;SDS011;23398;50.928;7.084;2022-11-04T09:52:17;2.50;;;1.10;;
37559;SDS011;23398;50.928;7.084;2022-11-04T09:54:49;3.00;;;1.33;;
37559;SDS011;23398;50.928;7.084;2022-11-04T09:57:20;2.28;;;1.40;;
37559;SDS011;23398;50.928;7.084;2022-11-04T09:59:46;3.35;;;1.27;;
37559;SDS011;23398;50.928;7.084;2022-11-04T10:13:32;2.60;;;1.35;;
37559;SDS011;23398;50.928;7.084;2022-11-04T10:19:09;2.22;;;1.40;;
37559;SDS011;23398;50.928;7.084;2022-11-04T10:25:15;3.00;;;1.30;;
37559;SDS011;23398;50.928;7.084;2022-11-04T10:27:46;2.10;;;1.10;;
37559;SDS011;23398;50.928;7.084;2022-11-04T10:30:20;4.03;;;1.10;;
37559;SDS011;23398;50.928;7.084;2022-11-04T10:35:16;2.53;;;1.02;;
37559;SDS011;23398;50.928;7.084;2022-11-04T10:37:50;3.70;;;1.08;;
37559;SDS011;23398;50.928;7.084;2022-11-04T10:40:25;2.85;;;1.20;;
37559;SDS011;23398;50.928;7.084;2022-11-04T10:42:56;3.15;;;1.40;;
37559;SDS011;23398;50.928;7.084;2022-11-04T10:45:25;2.30;;;1.20;;
37559;SDS011;23398;50.928;7.084;2022-11-04T10:47:59;3.15;;;1.27;;
37559;SDS011;23398;50.928;7.084;2022-11-04T10:50:40;2.22;;;1.13;;
37559;SDS011;23398;50.928;7.084;2022-11-04T10:53:18;1.83;;;1.10;;
37559;SDS011;23398;50.928;7.084;2022-11-04T10:58:38;2.20;;;1.15;;
37559;SDS011;23398;50.928;7.084;2022-11-04T11:03:56;3.08;;;1.10;;
37559;SDS011;23398;50.928;7.084;2022-11-04T11:06:32;2.83;;;1.45;;
37559;SDS011;23398;50.928;7.084;2022-11-04T11:11:45;2.83;;;1.50;;
37559;SDS011;23398;50.928;7.084;2022-11-04T11:14:30;3.47;;;2.00;;
37559;SDS011;23398;50.928;7.084;2022-11-04T11:19:49;3.90;;;1.80;;
37559;SDS011;23398;50.928;7.084;2022-11-04T11:22:27;2.42;;;1.65;;
37559;SDS011;23398;50.928;7.084;2022-11-04T11:27:36;4.00;;;1.60;;
37559;SDS011;23398;50.928;7.084;2022-11-04T11:30:02;3.17;;;1.50;;
37559;SDS011;23398;50.928;7.084;2022-11-04T11:32:30;2.67;;;1.40;;
37559;SDS011;23398;50.928;7.084;2022-11-04T11:34:59;2.10;;;1.55;;
37559;SDS011;23398;50.928;7.084;2022-11-04T11:37:26;2.63;;;1.52;;
37559;SDS011;23398;50.928;7.084;2022-11-04T11:39:55;3.15;;;1.55;;
37559;SDS011;23398;50.928;7.084;2022-11-04T11:42:21;2.60;;;1.42;;
37559;SDS011;23398;50.928;7.084;2022-11-04T11:44:48;4.10;;;1.80;;
37559;SDS011;23398;50.928;7.084;2022-11-04T11:53:06;2.17;;;1.40;;
37559;SDS011;23398;50.928;7.084;2022-11-04T11:55:45;3.58;;;1.67;;
37559;SDS011;23398;50.928;7.084;2022-11-04T11:58:36;2.58;;;1.55;;
37559;SDS011;23398;50.928;7.084;2022-11-04T12:01:08;2.70;;;1.30;;
37559;SDS011;23398;50.928;7.084;2022-11-04T12:03:56;2.22;;;0.90;;
37559;SDS011;23398;50.928;7.084;2022-11-04T12:06:27;1.90;;;0.90;;
37559;SDS011;23398;50.928;7.084;2022-11-04T12:09:01;2.67;;;0.98;;
37559;SDS011;23398;50.928;7.084;2022-11-04T12:14:22;3.97;;;1.30;;
37559;SDS011;23398;50.928;7.084;2022-11-04T12:16:57;3.80;;;1.40;;
37559;SDS011;23398;50.928;7.084;2022-11-04T12:19:51;2.53;;;1.08;;
37559;SDS011;23398;50.928;7.084;2022-11-04T12:22:39;2.47;;;1.00;;
37559;SDS011;23398;50.928;7.084;2022-11-04T12:25:10;2.80;;;1.15;;
37559;SDS011;23398;50.928;7.084;2022-11-04T12:27:40;1.58;;;1.08;;
37559;SDS011;23398;50.928;7.084;2022-11-04T12:30:22;2.05;;;0.98;;
37559;SDS011;23398;50.928;7.084;2022-11-04T12:33:26;2.88;;;1.10;;
37559;SDS011;23398;50.928;7.084;2022-11-04T12:36:02;2.28;;;1.08;;
37559;SDS011;23398;50.928;7.084;2022-11-04T12:47:30;1.67;;;0.93;;
37559;SDS011;23398;50.928;7.084;2022-11-04T12:50:13;1.08;;;0.90;;
37559;SDS011;23398;50.928;7.084;2022-11-04T13:00:46;1.23;;;0.90;;
37559;SDS011;23398;50.928;7.084;2022-11-04T13:03:15;1.55;;;0.95;;
37559;SDS011;23398;50.928;7.084;2022-11-04T13:05:58;1.60;;;1.00;;
37559;SDS011;23398;50.928;7.084;2022-11-04T13:08:49;4.50;;;1.58;;
37559;SDS011;23398;50.928;7.084;2022-11-04T13:11:23;2.70;;;1.40;;
37559;SDS011;23398;50.928;7.084;2022-11-04T13:16:46;1.73;;;1.40;;
37559;SDS011;23398;50.928;7.084;2022-11-04T13:19:27;2.97;;;1.60;;
37559;SDS011;23398;50.928;7.084;2022-11-04T13:21:55;3.17;;;1.30;;
37559;SDS011;23398;50.928;7.084;2022-11-04T13:24:36;2.15;;;1.20;;
37559;SDS011;23398;50.928;7.084;2022-11-04T13:28:05;2.65;;;1.10;;
37559;SDS011;23398;50.928;7.084;2022-11-04T13:30:14;1.65;;;1.00;;
37559;SDS011;23398;50.928;7.084;2022-11-04T13:33:07;4.13;;;1.45;;
37559;SDS011;23398;50.928;7.084;2022-11-04T13:38:33;2.80;;;1.45;;
37559;SDS011;23398;50.928;7.084;2022-11-04T13:43:57;3.03;;;1.30;;
37559;SDS011;23398;50.928;7.084;2022-11-04T13:46:26;2.72;;;1.20;;
37559;SDS011;23398;50.928;7.084;2022-11-04T13:49:04;3.03;;;1.25;;
37559;SDS011;23398;50.928;7.084;2022-11-04T13:51:41;3.22;;;1.35;;
37559;SDS011;23398;50.928;7.084;2022-11-04T13:54:30;3.55;;;1.38;;
37559;SDS011;23398;50.928;7.084;2022-11-04T13:57:02;3.25;;;1.33;;
37559;SDS011;23398;50.928;7.084;2022-11-04T13:59:29;3.65;;;1.40;;
37559;SDS011;23398;50.928;7.084;2022-11-04T14:04:36;2.65;;;1.27;;
37559;SDS011;23398;50.928;7.084;2022-11-04T14:07:03;3.42;;;1.30;;
37559;SDS011;23398;50.928;7.084;2022-11-04T14:14:39;2.25;;;1.33;;
37559;SDS011;23398;50.928;7.084;2022-11-04T14:19:58;4.78;;;1.50;;
37559;SDS011;23398;50.928;7.084;2022-11-04T14:22:35;3.15;;;1.42;;
37559;SDS011;23398;50.928;7.084;2022-11-04T14:25:23;3.63;;;1.50;;
37559;SDS011;23398;50.928;7.084;2022-11-04T14:38:46;1.30;;;1.15;;
37559;SDS011;23398;50.928;7.084;2022-11-04T14:41:21;2.35;;;1.10;;
37559;SDS011;23398;50.928;7.084;2022-11-04T14:43:47;2.22;;;1.25;;
37559;SDS011;23398;50.928;7.084;2022-11-04T14:46:20;2.42;;;1.20;;
37559;SDS011;23398;50.928;7.084;2022-11-04T14:48:50;2.80;;;1.20;;
37559;SDS011;23398;50.928;7.084;2022-11-04T14:51:27;2.13;;;1.30;;
37559;SDS011;23398;50.928;7.084;2022-11-04T14:54:03;3.58;;;1.30;;
37559;SDS011;23398;50.928;7.084;2022-11-04T14:56:29;3.83;;;1.40;;
37559;SDS011;23398;50.928;7.084;2022-11-04T15:01:25;2.20;;;1.25;;
37559;SDS011;23398;50.928;7.084;2022-11-04T15:03:53;3.20;;;1.10;;
37559;SDS011;23398;50.928;7.084;2022-11-04T15:06:25;2.80;;;1.25;;
37559;SDS011;23398;50.928;7.084;2022-11-04T15:08:52;1.48;;;1.00;;
37559;SDS011;23398;50.928;7.084;2022-11-04T15:11:23;2.00;;;1.23;;
37559;SDS011;23398;50.928;7.084;2022-11-04T15:14:16;1.67;;;1.10;;
37559;SDS011;23398;50.928;7.084;2022-11-04T15:16:46;4.25;;;1.48;;
37559;SDS011;23398;50.928;7.084;2022-11-04T15:19:25;2.85;;;1.60;;
37559;SDS011;23398;50.928;7.084;2022-11-04T15:22:00;2.38;;;1.23;;
37559;SDS011;23398;50.928;7.084;2022-11-04T15:24:28;2.60;;;1.20;;
37559;SDS011;23398;50.928;7.084;2022-11-04T15:26:56;3.15;;;1.40;;
37559;SDS011;23398;50.928;7.084;2022-11-04T15:29:26;2.85;;;1.48;;
37559;SDS011;23398;50.928;7.084;2022-11-04T15:34:18;2.88;;;1.38;;
37559;SDS011;23398;50.928;7.084;2022-11-04T15:36:44;2.55;;;1.30;;
37559;SDS011;23398;50.928;7.084;2022-11-04T15:39:24;2.28;;;1.20;;
37559;SDS011;23398;50.928;7.084;2022-11-04T15:41:59;2.42;;;1.40;;
37559;SDS011;23398;50.928;7.084;2022-11-04T15:44:46;3.03;;;1.27;;
37559;SDS011;23398;50.928;7.084;2022-11-04T15:49:44;2.70;;;1.40;;
37559;SDS011;23398;50.928;7.084;2022-11-04T15:54:54;2.70;;;1.30;;
37559;SDS011;23398;50.928;7.084;2022-11-04T15:57:31;3.50;;;1.30;;
37559;SDS011;23398;50.928;7.084;2022-11-04T16:02:28;3.40;;;1.40;;
37559;SDS011;23398;50.928;7.084;2022-11-04T16:07:46;2.65;;;1.42;;
37559;SDS011;23398;50.928;7.084;2022-11-04T16:10:24;1.98;;;1.20;;
37559;SDS011;23398;50.928;7.084;2022-11-04T16:13:02;2.15;;;1.50;;
37559;SDS011;23398;50.928;7.084;2022-11-04T16:15:48;3.50;;;1.40;;
37559;SDS011;23398;50.928;7.084;2022-11-04T16:26:43;3.13;;;1.45;;
37559;SDS011;23398;50.928;7.084;2022-11-04T16:29:17;4.00;;;1.58;;
37559;SDS011;23398;50.928;7.084;2022-11-04T16:31:57;3.75;;;1.80;;
37559;SDS011;23398;50.928;7.084;2022-11-04T16:34:48;3.75;;;2.10;;
37559;SDS011;23398;50.928;7.084;2022-11-04T16:37:15;5.00;;;2.17;;
37559;SDS011;23398;50.928;7.084;2022-11-04T16:39:42;4.18;;;2.03;;
37559;SDS011;23398;50.928;7.084;2022-11-04T16:42:10;4.20;;;1.80;;
37559;SDS011;23398;50.928;7.084;2022-11-04T16:44:37;3.03;;;1.60;;
37559;SDS011;23398;50.928;7.084;2022-11-04T16:47:03;5.43;;;2.13;;
37559;SDS011;23398;50.928;7.084;2022-11-04T16:49:29;2.05;;;1.40;;
37559;SDS011;23398;50.928;7.084;2022-11-04T16:51:55;3.17;;;1.63;;
37559;SDS011;23398;50.928;7.084;2022-11-04T16:54:25;5.10;;;1.70;;
37559;SDS011;23398;50.928;7.084;2022-11-04T16:56:52;4.63;;;1.70;;
37559;SDS011;23398;50.928;7.084;2022-11-04T16:59:18;3.72;;;1.80;;
37559;SDS011;23398;50.928;7.084;2022-11-04T17:01:44;7.63;;;2.15;;
37559;SDS011;23398;50.928;7.084;2022-11-04T17:04:09;3.60;;;1.75;;
37559;SDS011;23398;50.928;7.084;2022-11-04T17:06:35;2.33;;;1.65;;
37559;SDS011;23398;50.928;7.084;2022-11-04T17:09:01;2.88;;;1.83;;
37559;SDS011;23398;50.928;7.084;2022-11-04T17:11:27;3.40;;;1.35;;
37559;SDS011;23398;50.928;7.084;2022-11-04T17:13:55;3.55;;;1.65;;
37559;SDS011;23398;50.928;7.084;2022-11-04T17:16:21;5.05;;;1.80;;
37559;SDS011;23398;50.928;7.084;2022-11-04T17:18:46;3.35;;;1.73;;
37559;SDS011;23398;50.928;7.084;2022-11-04T17:21:12;2.78;;;1.40;;
37559;SDS011;23398;50.928;7.084;2022-11-04T17:23:41;3.42;;;1.67;;
37559;SDS011;23398;50.928;7.084;2022-11-04T17:26:08;3.40;;;1.90;;
37559;SDS011;23398;50.928;7.084;2022-11-04T17:28:35;2.60;;;1.77;;
37559;SDS011;23398;50.928;7.084;2022-11-04T17:31:01;3.55;;;1.67;;
37559;SDS011;23398;50.928;7.084;2022-11-04T17:33:27;2.28;;;1.40;;
37559;SDS011;23398;50.928;7.084;2022-11-04T17:35:53;3.90;;;1.58;;
37559;SDS011;23398;50.928;7.084;2022-11-04T17:38:19;2.35;;;1.40;;
37559;SDS011;23398;50.928;7.084;2022-11-04T17:40:45;2.88;;;1.50;;
37559;SDS011;23398;50.928;7.084;2022-11-04T17:43:29;2.33;;;1.50;;